Time;durP1;ratioP1;P1;durP2;ratioP2;P2;SDS_P1;SDS_P2;PMS_P1;PMS_P2;Temp;Humidity;BMP_temperature;BMP_pressure;BME280_temperature;BME280_humidity;BME280_pressure;Samples;Min_cycle;Max_cycle;Signal;HPM_P1;HPM_P2
2023/07/18 00:01:47;;;;;;;15.40;10.25;;;;;;;23.37;74.79;100029.32;1588319;90;21088;-65
2023/07/18 00:04:17;;;;;;;18.70;10.18;;;;;;;23.36;74.76;100022.63;1588337;89;21128;-63
2023/07/18 00:06:48;;;;;;;24.02;11.18;;;;;;;23.33;74.93;100020.41;1588543;90;21539;-65
2023/07/18 00:09:18;;;;;;;14.30;9.88;;;;;;;23.34;75.10;100019.29;1588575;90;21184;-65
2023/07/18 00:11:48;;;;;;;16.00;9.93;;;;;;;23.30;75.00;100011.20;1636165;83;21027;-65
2023/07/18 00:14:17;;;;;;;15.50;9.80;;;;;;;23.24;75.12;100010.98;1695192;85;21082;-65
2023/07/18 00:16:47;;;;;;;11.93;9.45;;;;;;;23.18;75.36;100022.76;1613377;87;21205;-65
2023/07/18 00:19:17;;;;;;;15.72;10.13;;;;;;;23.15;75.62;100024.73;1613705;89;21146;-64
2023/07/18 00:21:49;;;;;;;16.80;9.65;;;;;;;23.12;75.81;100014.70;1613816;89;21484;-65
2023/07/18 00:24:19;;;;;;;14.87;10.20;;;;;;;23.12;75.99;100018.33;1593230;89;21099;-65
2023/07/18 00:26:50;;;;;;;15.68;10.00;;;;;;;23.14;76.18;100015.25;1613760;89;21080;-64
2023/07/18 00:29:21;;;;;;;17.05;9.83;;;;;;;23.13;76.28;100006.59;1613604;89;21072;-65
2023/07/18 00:31:52;;;;;;;13.25;9.83;;;;;;;23.11;76.46;100004.64;1571452;89;21519;-64
2023/07/18 00:34:21;;;;;;;15.15;9.95;;;;;;;23.12;76.52;99995.14;1613761;89;21076;-64
2023/07/18 00:36:55;;;;;;;13.05;9.78;;;;;;;23.09;76.54;99986.77;1613736;87;21136;-64
2023/07/18 00:39:23;;;;;;;14.30;10.13;;;;;;;23.06;76.74;99980.36;1612823;87;21049;-64
2023/07/18 00:41:54;;;;;;;14.63;10.45;;;;;;;23.04;76.83;99973.67;1591302;89;21099;-64
2023/07/18 00:44:24;;;;;;;14.47;9.55;;;;;;;23.00;77.07;99971.75;1613427;89;21154;-63
2023/07/18 00:46:54;;;;;;;14.93;9.95;;;;;;;23.01;77.25;99969.23;1613420;89;21390;-65
2023/07/18 00:49:23;;;;;;;13.13;10.08;;;;;;;23.03;77.26;99964.18;1613297;87;21789;-65
2023/07/18 00:51:55;;;;;;;15.15;10.58;;;;;;;23.07;77.24;99961.08;1613408;89;21115;-64
2023/07/18 00:54:25;;;;;;;16.42;10.60;;;;;;;23.07;77.16;99947.94;1613358;89;21511;-64
2023/07/18 00:56:56;;;;;;;15.48;10.48;;;;;;;23.11;77.16;99947.35;1613445;89;21040;-65
2023/07/18 00:59:27;;;;;;;13.32;10.20;;;;;;;23.07;77.18;99939.55;1500285;91;21106;-64
2023/07/18 01:01:56;;;;;;;12.25;10.15;;;;;;;23.00;77.34;99940.45;1539545;92;21123;-65
2023/07/18 01:04:27;;;;;;;13.98;10.05;;;;;;;22.99;77.63;99935.98;1539580;91;21206;-64
2023/07/18 01:06:58;;;;;;;13.22;9.73;;;;;;;23.01;77.68;99928.14;1569784;89;21119;-65
2023/07/18 01:09:29;;;;;;;12.65;10.00;;;;;;;23.06;77.62;99925.30;1613537;89;21109;-63
2023/07/18 01:12:00;;;;;;;17.02;10.03;;;;;;;23.09;77.49;99928.91;1613374;87;21061;-65
2023/07/18 01:14:31;;;;;;;15.78;9.25;;;;;;;23.11;77.34;99928.62;1613369;89;21079;-64
2023/07/18 01:17:05;;;;;;;13.98;9.60;;;;;;;23.12;77.42;99928.89;1638669;84;21030;-66
2023/07/18 01:19:36;;;;;;;15.78;10.70;;;;;;;23.10;77.36;99919.97;1697758;84;21015;-64
2023/07/18 01:22:08;;;;;;;15.08;10.90;;;;;;;23.11;77.31;99920.23;1669784;84;21522;-65
2023/07/18 01:24:38;;;;;;;15.40;10.55;;;;;;;23.12;77.19;99920.51;1702735;83;21062;-66
2023/07/18 01:27:07;;;;;;;14.78;9.95;;;;;;;23.15;77.02;99920.48;1697610;84;21051;-65
2023/07/18 01:29:36;;;;;;;16.20;10.30;;;;;;;23.12;76.73;99916.87;1672145;84;21522;-66
2023/07/18 01:32:07;;;;;;;14.60;10.48;;;;;;;23.06;76.76;99914.12;1669899;84;21054;-66
2023/07/18 01:34:36;;;;;;;14.73;10.80;;;;;;;23.03;76.96;99909.13;1702215;84;21121;-65
2023/07/18 01:37:06;;;;;;;15.35;10.75;;;;;;;23.03;77.06;99906.89;1609420;87;21245;-65
2023/07/18 01:39:37;;;;;;;13.00;9.70;;;;;;;23.02;77.18;99907.45;1611357;88;21099;-63
2023/07/18 01:42:07;;;;;;;13.75;10.08;;;;;;;23.05;77.28;99906.03;1613592;89;21052;-65
2023/07/18 01:44:37;;;;;;;16.07;10.40;;;;;;;23.04;77.29;99906.60;1593145;89;21104;-65
2023/07/18 01:47:06;;;;;;;16.85;11.28;;;;;;;23.06;77.32;99907.14;1593003;89;21203;-64
2023/07/18 01:49:37;;;;;;;12.68;10.50;;;;;;;23.06;77.35;99903.52;1592637;87;21061;-64
2023/07/18 01:52:08;;;;;;;13.68;9.95;;;;;;;23.07;77.44;99907.98;1592728;89;21130;-65
2023/07/18 01:54:38;;;;;;;13.28;10.60;;;;;;;23.06;77.57;99910.50;1557646;89;21099;-65
2023/07/18 01:57:07;;;;;;;15.40;11.00;;;;;;;23.08;77.59;99911.04;1615121;88;21052;-65
2023/07/18 01:59:36;;;;;;;18.07;10.15;;;;;;;23.09;77.44;99914.11;1614784;87;21116;-63
2023/07/18 02:02:06;;;;;;;16.52;10.23;;;;;;;23.11;77.35;99915.21;1593819;89;21100;-63
2023/07/18 02:04:35;;;;;;;19.25;10.10;;;;;;;23.13;77.28;99910.16;1593837;88;21175;-65
2023/07/18 02:07:06;;;;;;;13.75;10.35;;;;;;;23.15;77.13;99912.10;1614833;89;21068;-64
2023/07/18 02:09:37;;;;;;;13.50;10.10;;;;;;;23.16;77.12;99907.62;1614962;89;21120;-66
2023/07/18 02:12:08;;;;;;;19.65;10.72;;;;;;;23.18;77.09;99905.92;1634722;84;21074;-65
2023/07/18 02:14:39;;;;;;;12.60;10.60;;;;;;;23.18;77.03;99903.97;1702159;83;21038;-64
2023/07/18 02:17:09;;;;;;;17.02;11.00;;;;;;;23.19;77.04;99895.84;1701988;84;21027;-68
2023/07/18 02:19:40;;;;;;;15.13;10.95;;;;;;;23.21;77.08;99899.75;1702144;84;21074;-65
2023/07/18 02:22:08;;;;;;;17.05;10.50;;;;;;;23.21;77.06;99903.38;1702200;84;21030;-65
2023/07/18 02:24:38;;;;;;;17.92;11.18;;;;;;;23.22;77.07;99900.02;1702076;83;21034;-65
2023/07/18 02:27:07;;;;;;;15.85;10.60;;;;;;;23.23;77.08;99904.48;1701885;83;21098;-64
2023/07/18 02:29:37;;;;;;;17.37;11.30;;;;;;;23.25;77.05;99902.23;1674166;84;21062;-64
2023/07/18 02:32:07;;;;;;;13.38;9.93;;;;;;;23.25;76.92;99892.44;1701970;84;21070;-66
2023/07/18 02:34:39;;;;;;;18.55;11.63;;;;;;;23.26;76.89;99896.91;1701993;84;21055;-65
2023/07/18 02:37:09;;;;;;;15.70;10.63;;;;;;;23.25;76.87;99898.87;1702041;84;21078;-63
2023/07/18 02:39:42;;;;;;;17.35;10.70;;;;;;;23.26;76.84;99894.95;1698298;84;21152;-64
2023/07/18 02:42:12;;;;;;;13.68;10.60;;;;;;;23.25;76.82;99892.44;1692369;85;21463;-64
2023/07/18 02:44:42;;;;;;;16.77;10.45;;;;;;;23.21;76.86;99894.16;1672790;84;21023;-64
2023/07/18 02:47:13;;;;;;;16.15;10.88;;;;;;;23.19;76.87;99907.03;1692336;85;21043;-65
2023/07/18 02:49:43;;;;;;;14.47;9.90;;;;;;;23.20;76.77;99926.03;1650897;85;21083;-64
2023/07/18 02:52:13;;;;;;;16.42;10.32;;;;;;;23.19;76.50;99982.50;1692131;83;21035;-64
2023/07/18 02:54:43;;;;;;;13.53;10.23;;;;;;;23.19;75.83;99973.28;1692354;85;21065;-65
2023/07/18 02:57:13;;;;;;;15.50;10.00;;;;;;;23.21;74.75;99955.09;1692201;83;21062;-65
2023/07/18 02:59:43;;;;;;;15.68;10.25;;;;;;;23.27;73.95;99966.50;1614750;88;21048;-65
2023/07/18 03:02:15;;;;;;;14.83;9.98;;;;;;;23.36;73.25;99969.50;1614533;89;21488;-64
2023/07/18 03:04:53;;;;;;;12.47;9.60;;;;;;;23.46;72.34;99972.24;1614822;88;21079;-64
2023/07/18 03:07:22;;;;;;;21.73;10.45;;;;;;;23.56;71.71;99968.55;1615019;88;21064;-64
2023/07/18 03:09:53;;;;;;;13.78;9.98;;;;;;;23.64;71.10;99965.95;1614962;89;21045;-65
2023/07/18 03:12:23;;;;;;;12.60;9.55;;;;;;;23.71;70.49;99969.80;1615031;89;21096;-64
2023/07/18 03:14:52;;;;;;;15.98;9.08;;;;;;;23.78;69.73;99968.05;1614751;87;21531;-65
2023/07/18 03:17:21;;;;;;;12.85;8.73;;;;;;;23.82;68.92;99976.95;1637239;83;21051;-64
2023/07/18 03:19:51;;;;;;;12.30;8.10;;;;;;;23.86;68.34;99975.80;1671878;85;21532;-65
2023/07/18 03:22:21;;;;;;;11.45;8.45;;;;;;;23.87;67.81;99978.30;1692531;85;21080;-64
2023/07/18 03:24:51;;;;;;;9.93;8.40;;;;;;;23.88;67.75;99984.16;1692475;83;21938;-65
2023/07/18 03:27:23;;;;;;;11.83;7.92;;;;;;;23.89;67.43;99977.44;1672048;85;21436;-65
2023/07/18 03:29:53;;;;;;;13.03;8.23;;;;;;;23.90;67.41;99979.10;1692468;85;21063;-65
2023/07/18 03:32:23;;;;;;;10.20;7.78;;;;;;;23.92;67.03;99979.64;1671698;85;21067;-65
2023/07/18 03:34:53;;;;;;;9.85;8.20;;;;;;;23.92;66.92;99981.05;1692260;85;21515;-65
2023/07/18 03:37:22;;;;;;;10.15;6.95;;;;;;;23.93;66.75;99987.47;1671368;85;21244;-63
2023/07/18 03:39:52;;;;;;;9.25;6.70;;;;;;;23.90;66.35;99989.47;1612224;88;21091;-66
2023/07/18 03:42:22;;;;;;;9.08;6.50;;;;;;;23.84;66.12;99990.65;1588551;89;21072;-66
2023/07/18 03:44:51;;;;;;;8.78;6.85;;;;;;;23.78;66.13;99994.63;1609496;87;21524;-65
2023/07/18 03:47:21;;;;;;;11.63;6.70;;;;;;;23.74;66.08;99996.34;1609555;87;21092;-66
2023/07/18 03:49:52;;;;;;;9.58;5.92;;;;;;;23.67;66.08;100003.12;1609562;89;21072;-66
2023/07/18 03:52:22;;;;;;;8.03;5.85;;;;;;;23.60;65.96;99989.20;1609441;87;21215;-64
2023/07/18 03:54:51;;;;;;;8.10;5.50;;;;;;;23.55;66.02;99995.68;1609340;87;21129;-66
2023/07/18 03:57:21;;;;;;;8.40;6.20;;;;;;;23.54;66.04;99984.75;1609422;89;21549;-66
2023/07/18 03:59:50;;;;;;;7.83;5.53;;;;;;;23.53;65.86;99979.72;1609342;89;21041;-66
2023/07/18 04:02:19;;;;;;;7.22;5.80;;;;;;;23.56;66.01;99969.38;1609164;89;21562;-66
2023/07/18 04:04:49;;;;;;;6.03;5.28;;;;;;;23.58;65.81;99968.52;1665583;84;21082;-65
2023/07/18 04:07:20;;;;;;;7.35;5.35;;;;;;;23.60;65.44;99964.86;1668795;84;21142;-64
2023/07/18 04:09:51;;;;;;;7.40;5.65;;;;;;;23.61;65.34;99972.69;1702660;84;21054;-65
2023/07/18 04:12:21;;;;;;;7.30;5.25;;;;;;;23.62;65.44;99958.98;1697578;84;21113;-64
2023/07/18 04:14:51;;;;;;;9.08;5.30;;;;;;;23.61;65.20;99959.55;1702433;84;21531;-66
2023/07/18 04:17:22;;;;;;;10.90;6.03;;;;;;;23.64;65.05;99965.11;1646666;84;21079;-65
2023/07/18 04:19:53;;;;;;;9.18;5.10;;;;;;;23.66;65.01;99960.05;1702518;84;21018;-65
2023/07/18 04:22:22;;;;;;;7.92;5.33;;;;;;;23.68;64.71;99959.20;1670039;84;21511;-64
2023/07/18 04:24:56;;;;;;;6.92;5.25;;;;;;;23.68;64.49;99957.80;1702360;83;21027;-64
2023/07/18 04:27:27;;;;;;;8.53;4.90;;;;;;;23.67;64.34;99958.36;1670481;84;21027;-65
2023/07/18 04:29:56;;;;;;;8.13;4.78;;;;;;;23.69;64.00;99960.86;1697606;84;21019;-66
2023/07/18 04:32:26;;;;;;;7.53;4.60;;;;;;;23.69;63.83;99960.86;1702592;82;21026;-65
2023/07/18 04:34:55;;;;;;;5.53;4.78;;;;;;;23.69;63.64;99958.91;1697233;84;21094;-65
2023/07/18 04:37:25;;;;;;;6.92;4.50;;;;;;;23.71;63.43;99962.80;1671792;84;21115;-65
2023/07/18 04:39:54;;;;;;;8.50;5.20;;;;;;;23.68;63.15;99957.23;1696124;83;21569;-65
2023/07/18 04:42:23;;;;;;;5.90;4.58;;;;;;;23.68;63.16;99962.83;1671095;84;21019;-65
2023/07/18 04:44:52;;;;;;;8.25;4.40;;;;;;;23.67;63.08;99958.36;1672981;85;21122;-65
2023/07/18 04:47:22;;;;;;;5.40;4.42;;;;;;;23.66;62.70;99955.86;1692177;85;21158;-63
2023/07/18 04:49:51;;;;;;;5.80;4.35;;;;;;;23.65;62.73;99952.23;1692139;83;21051;-64
2023/07/18 04:52:22;;;;;;;7.08;5.10;;;;;;;23.61;63.01;99948.35;1692140;85;21494;-64
2023/07/18 04:54:52;;;;;;;7.42;4.45;;;;;;;23.63;63.17;99945.26;1692241;85;21048;-65
2023/07/18 04:57:21;;;;;;;8.28;4.75;;;;;;;23.63;62.83;99943.86;1692431;85;21047;-65
2023/07/18 04:59:51;;;;;;;6.40;4.65;;;;;;;23.65;62.60;99947.20;1692474;83;21524;-65
2023/07/18 05:02:20;;;;;;;6.05;4.10;;;;;;;23.61;62.52;99940.52;1692326;85;21019;-64
2023/07/18 05:04:49;;;;;;;6.28;3.85;;;;;;;23.63;62.66;99945.26;1692373;85;21027;-65
2023/07/18 05:07:18;;;;;;;7.08;4.37;;;;;;;23.59;62.73;99964.59;1692145;83;21086;-64
2023/07/18 05:09:47;;;;;;;7.15;4.12;;;;;;;23.58;62.67;99977.48;1692180;83;21489;-66
2023/07/18 05:12:17;;;;;;;6.62;4.45;;;;;;;23.55;62.49;99971.91;1692170;83;21088;-65
2023/07/18 05:14:47;;;;;;;5.87;4.10;;;;;;;23.52;62.53;99978.05;1692354;83;21135;-65
2023/07/18 05:17:17;;;;;;;5.50;4.00;;;;;;;23.54;62.58;99970.20;1692329;83;21047;-66
2023/07/18 05:19:48;;;;;;;7.10;3.90;;;;;;;23.55;62.61;99969.11;1692378;83;21055;-65
2023/07/18 05:22:18;;;;;;;11.15;4.70;;;;;;;23.57;62.67;99969.65;1692209;83;21055;-65
2023/07/18 05:24:48;;;;;;;9.25;4.60;;;;;;;23.58;62.49;99972.72;1692267;85;21190;-65
2023/07/18 05:27:19;;;;;;;6.12;4.40;;;;;;;23.58;62.64;99962.09;1692130;85;21059;-65
2023/07/18 05:29:49;;;;;;;6.67;4.80;;;;;;;23.58;62.86;99955.94;1692323;85;21067;-65
2023/07/18 05:32:18;;;;;;;5.87;4.08;;;;;;;23.55;63.14;99963.52;1692133;85;21576;-65
2023/07/18 05:34:49;;;;;;;9.10;4.30;;;;;;;23.57;63.24;99952.88;1692340;85;21063;-65
2023/07/18 05:37:21;;;;;;;5.83;4.40;;;;;;;23.59;63.33;99948.37;1692261;85;21051;-64
2023/07/18 05:39:51;;;;;;;6.30;4.17;;;;;;;23.62;63.16;99947.78;1693340;84;21115;-65
2023/07/18 05:42:21;;;;;;;9.38;4.87;;;;;;;23.65;63.17;99955.59;1705385;84;21051;-65
2023/07/18 05:44:51;;;;;;;8.85;4.58;;;;;;;23.69;63.13;99950.51;1705414;84;21109;-67
2023/07/18 05:47:21;;;;;;;6.92;4.47;;;;;;;23.75;63.08;99956.05;1705619;83;21016;-65
2023/07/18 05:49:49;;;;;;;6.90;4.42;;;;;;;23.78;62.97;99961.05;1705715;84;21067;-65
2023/07/18 05:52:19;;;;;;;7.62;4.50;;;;;;;23.79;62.92;99965.52;1681503;84;21064;-65
2023/07/18 05:54:49;;;;;;;7.58;4.20;;;;;;;23.78;62.82;99949.30;1705517;84;21447;-67
2023/07/18 05:57:19;;;;;;;8.25;5.12;;;;;;;23.79;62.88;99941.17;1705547;84;21490;-65
2023/07/18 05:59:48;;;;;;;11.22;4.70;;;;;;;23.84;62.79;99927.13;1705446;84;21032;-65
2023/07/18 06:02:19;;;;;;;25.60;5.70;;;;;;;23.88;62.44;99944.16;1681838;84;21472;-66
2023/07/18 06:04:48;;;;;;;10.03;6.95;;;;;;;23.90;62.55;99937.70;1705677;84;21040;-67
2023/07/18 06:07:17;;;;;;;7.90;5.15;;;;;;;23.97;62.57;99939.00;1705382;84;20996;-65
2023/07/18 06:09:48;;;;;;;8.68;4.75;;;;;;;24.06;62.28;99930.81;1705501;84;21075;-64
2023/07/18 06:12:18;;;;;;;7.47;4.65;;;;;;;24.13;62.07;99925.69;1681818;84;20993;-68
2023/07/18 06:14:47;;;;;;;8.25;5.42;;;;;;;24.23;61.89;99917.73;1705669;84;21047;-67
2023/07/18 06:17:17;;;;;;;7.22;4.40;;;;;;;24.32;61.58;99906.98;1705588;84;21016;-65
2023/07/18 06:19:47;;;;;;;8.95;4.78;;;;;;;24.41;61.22;99906.31;1658860;84;21085;-66
2023/07/18 06:22:18;;;;;;;6.87;4.83;;;;;;;24.54;60.58;99909.77;1705679;84;21015;-67
2023/07/18 06:24:48;;;;;;;11.38;4.20;;;;;;;24.65;60.21;99905.68;1705434;83;21467;-66
2023/07/18 06:27:18;;;;;;;5.78;3.90;;;;;;;24.77;59.35;99906.09;1705708;84;21039;-66
2023/07/18 06:29:47;;;;;;;6.90;4.25;;;;;;;25.02;58.11;99910.48;1682070;84;21135;-65
2023/07/18 06:32:16;;;;;;;7.20;3.60;;;;;;;25.24;56.80;99917.67;1705633;84;21432;-66
2023/07/18 06:34:46;;;;;;;6.00;3.70;;;;;;;25.42;56.17;99917.39;1705494;83;21038;-64
2023/07/18 06:37:17;;;;;;;13.18;4.78;;;;;;;25.57;55.53;99911.50;1681490;84;21187;-66
2023/07/18 06:39:46;;;;;;;11.50;5.03;;;;;;;25.67;55.40;99914.71;1705474;84;21007;-65
2023/07/18 06:42:16;;;;;;;5.75;3.47;;;;;;;25.78;55.44;99911.14;1692677;84;21027;-66
2023/07/18 06:44:45;;;;;;;7.53;4.25;;;;;;;25.89;54.20;99918.22;1692180;85;21518;-65
2023/07/18 06:47:14;;;;;;;6.78;4.53;;;;;;;25.98;54.28;99913.53;1692173;83;21031;-65
2023/07/18 06:49:43;;;;;;;5.72;4.47;;;;;;;26.19;54.14;99908.36;1692159;83;21011;-64
2023/07/18 06:52:13;;;;;;;7.85;4.40;;;;;;;26.53;53.19;99913.53;1692313;85;21090;-66
2023/07/18 06:54:44;;;;;;;4.55;3.87;;;;;;;26.93;52.24;99918.81;1692258;83;21081;-66
2023/07/18 06:57:15;;;;;;;7.83;5.25;;;;;;;27.33;51.49;99912.80;1692227;83;21063;-65
2023/07/18 06:59:45;;;;;;;7.58;4.28;;;;;;;27.98;49.63;99905.16;1692209;85;21087;-67
2023/07/18 07:02:16;;;;;;;8.78;4.00;;;;;;;27.98;49.63;99905.16;1692315;83;21517;-64
2023/07/18 07:04:45;;;;;;;7.03;3.90;;;;;;;28.20;49.03;99915.50;1692227;85;21061;-66
2023/07/18 07:07:14;;;;;;;8.03;4.47;;;;;;;28.29;48.09;99912.73;1672943;85;21484;-64
2023/07/18 07:09:44;;;;;;;10.45;5.37;;;;;;;28.32;48.23;99924.76;1692435;83;21031;-66
2023/07/18 07:12:14;;;;;;;6.78;4.03;;;;;;;28.34;47.50;99913.99;1692453;83;21072;-64
2023/07/18 07:14:46;;;;;;;6.80;3.55;;;;;;;28.30;47.77;99922.27;1689824;84;21098;-65
2023/07/18 07:17:16;;;;;;;6.87;3.80;;;;;;;28.24;47.01;99924.98;1692087;85;21691;-64
2023/07/18 07:19:46;;;;;;;4.90;4.17;;;;;;;28.03;47.00;99923.89;1692382;85;21015;-64
2023/07/18 07:22:16;;;;;;;4.62;3.37;;;;;;;27.77;47.66;99922.34;1692828;85;21083;-65
2023/07/18 07:24:47;;;;;;;4.78;3.50;;;;;;;27.58;47.96;99911.86;1692151;85;21051;-65
2023/07/18 07:27:18;;;;;;;10.08;5.17;;;;;;;27.29;49.06;99930.03;1692191;83;21483;-66
2023/07/18 07:29:49;;;;;;;13.70;4.33;;;;;;;27.29;49.06;99930.03;1671845;85;21087;-65
2023/07/18 07:32:18;;;;;;;13.70;4.40;;;;;;;27.18;49.52;99921.59;1692455;84;21050;-65
2023/07/18 07:34:47;;;;;;;8.58;4.17;;;;;;;27.12;50.03;99925.69;1672939;85;21082;-67
2023/07/18 07:37:17;;;;;;;5.85;3.55;;;;;;;27.05;50.34;99931.76;1592974;89;21110;-64
2023/07/18 07:39:47;;;;;;;7.50;3.95;;;;;;;26.97;50.58;99923.22;1593914;87;21094;-67
2023/07/18 07:42:17;;;;;;;6.25;3.42;;;;;;;26.85;51.17;99940.08;1594062;89;21106;-65
2023/07/18 07:44:46;;;;;;;4.87;3.50;;;;;;;26.74;51.61;99933.60;1615221;89;21162;-66
2023/07/18 07:47:15;;;;;;;5.05;3.62;;;;;;;26.68;51.90;99941.33;1615206;89;21034;-64
2023/07/18 07:49:46;;;;;;;7.17;3.90;;;;;;;26.60;51.91;99932.20;1615226;89;21118;-64
2023/07/18 07:52:15;;;;;;;3.85;3.40;;;;;;;26.55;52.00;99943.56;1615287;87;21686;-65
2023/07/18 07:54:45;;;;;;;3.90;3.33;;;;;;;26.49;52.10;99933.58;1634635;84;21077;-63
2023/07/18 07:57:15;;;;;;;4.87;4.00;;;;;;;26.41;52.48;99921.11;1673664;84;21114;-65
2023/07/18 07:59:45;;;;;;;6.05;3.83;;;;;;;26.38;52.81;99932.14;1651826;84;21122;-65
2023/07/18 08:02:15;;;;;;;5.35;3.42;;;;;;;26.36;53.05;99927.41;1704726;83;21173;-64
2023/07/18 08:04:44;;;;;;;5.92;3.60;;;;;;;26.36;53.13;99928.24;1704870;84;21513;-66
2023/07/18 08:07:14;;;;;;;22.93;5.60;;;;;;;26.38;53.18;99926.52;1704639;82;21078;-66
2023/07/18 08:09:43;;;;;;;4.87;4.20;;;;;;;26.32;53.51;99924.36;1726594;82;21106;-66
2023/07/18 08:12:13;;;;;;;5.87;3.98;;;;;;;26.26;54.12;99934.63;1708339;82;21099;-67
2023/07/18 08:14:44;;;;;;;6.42;3.70;;;;;;;26.15;54.41;99936.81;1679221;85;21038;-67
2023/07/18 08:17:13;;;;;;;4.17;3.70;;;;;;;26.06;54.94;99938.69;1675379;84;21079;-67
2023/07/18 08:19:42;;;;;;;10.03;4.17;;;;;;;25.98;55.13;99942.19;1702380;84;21509;-68
2023/07/18 08:22:12;;;;;;;9.83;4.97;;;;;;;25.90;55.09;99950.19;1724503;83;21330;-69
2023/07/18 08:24:41;;;;;;;9.48;4.62;;;;;;;25.82;55.39;99947.27;1716984;83;21068;-66
2023/07/18 08:27:10;;;;;;;8.28;4.78;;;;;;;25.67;55.44;99952.59;1729791;83;21544;-68
2023/07/18 08:29:41;;;;;;;6.75;4.28;;;;;;;25.48;55.64;99961.05;1730681;83;21435;-67
2023/07/18 08:32:11;;;;;;;6.90;4.37;;;;;;;25.32;56.00;99954.00;1730520;83;21122;-68
2023/07/18 08:34:40;;;;;;;5.42;4.35;;;;;;;25.20;57.14;99952.24;1674602;86;21078;-67
2023/07/18 08:37:09;;;;;;;8.90;5.85;;;;;;;25.12;59.58;99955.17;1674624;86;21055;-69
2023/07/18 08:39:39;;;;;;;8.03;4.60;;;;;;;25.06;61.05;99947.15;1646611;86;21094;-69
2023/07/18 08:42:09;;;;;;;6.12;4.30;;;;;;;25.01;61.76;99945.83;1665497;85;21067;-69
2023/07/18 08:44:39;;;;;;;6.35;4.08;;;;;;;24.94;61.73;99949.81;1703810;83;21034;-67
2023/07/18 08:47:10;;;;;;;5.75;4.30;;;;;;;24.90;61.58;99952.96;1703893;84;21066;-71
2023/07/18 08:49:40;;;;;;;9.75;4.62;;;;;;;24.80;61.21;99954.52;1680221;84;21495;-69
2023/07/18 08:52:10;;;;;;;8.23;4.65;;;;;;;24.76;61.16;99950.66;1703914;84;21511;-68
2023/07/18 08:54:38;;;;;;;14.15;5.75;;;;;;;24.72;61.26;99951.00;1703786;83;21034;-70
2023/07/18 08:57:08;;;;;;;9.50;5.20;;;;;;;24.75;61.74;99960.77;1703821;83;21042;-68
2023/07/18 08:59:39;;;;;;;15.68;5.50;;;;;;;24.76;61.73;99957.66;1703783;84;21038;-70
2023/07/18 09:02:09;;;;;;;9.13;4.72;;;;;;;24.81;61.84;99950.58;1703966;83;21121;-70
2023/07/18 09:04:38;;;;;;;10.98;5.03;;;;;;;24.84;61.85;99951.38;1680537;84;21561;-67
2023/07/18 09:07:08;;;;;;;12.20;5.28;;;;;;;24.92;61.71;99953.49;1679756;84;21162;-69
2023/07/18 09:09:39;;;;;;;13.22;5.65;;;;;;;25.00;61.79;99949.77;1703927;84;21054;-67
2023/07/18 09:12:10;;;;;;;9.28;4.70;;;;;;;25.06;61.69;99942.38;1658213;84;21035;-69
2023/07/18 09:14:39;;;;;;;11.95;5.92;;;;;;;25.14;61.29;99939.45;1680197;84;21534;-68
2023/07/18 09:17:10;;;;;;;7.80;4.85;;;;;;;25.23;60.72;99933.41;1697323;83;21062;-67
2023/07/18 09:19:48;;;;;;;9.10;4.92;;;;;;;25.33;60.19;99936.03;1701768;83;21518;-69
2023/07/18 09:22:17;;;;;;;11.50;5.15;;;;;;;25.38;59.86;99937.38;1701933;84;21065;-69
2023/07/18 09:24:48;;;;;;;8.45;5.47;;;;;;;25.48;60.10;99935.80;1702002;84;21054;-70
2023/07/18 09:27:19;;;;;;;5.55;4.45;;;;;;;25.65;59.50;99928.77;1620475;86;21486;-71
2023/07/18 09:29:49;;;;;;;8.10;5.15;;;;;;;25.83;58.98;99939.11;1701877;84;21038;-68
2023/07/18 09:32:23;;;;;;;6.35;4.60;;;;;;;25.99;58.33;99943.84;1654974;85;21078;-68
2023/07/18 09:35:01;;;;;;;5.87;4.50;;;;;;;26.17;57.73;99939.56;1708044;83;21574;-67
2023/07/18 09:37:30;;;;;;;6.78;5.00;;;;;;;26.38;57.57;99941.97;1718014;83;21054;-72
2023/07/18 09:40:01;;;;;;;10.28;5.50;;;;;;;26.61;56.23;99939.48;1709081;82;21033;-69
2023/07/18 09:42:32;;;;;;;5.25;4.20;;;;;;;26.73;55.63;99938.40;1712200;83;21433;-70
2023/07/18 09:45:01;;;;;;;5.55;4.60;;;;;;;26.82;54.91;99935.66;1730170;81;21032;-68
2023/07/18 09:47:32;;;;;;;4.72;4.10;;;;;;;26.89;54.82;99937.46;1695397;82;21028;-72
2023/07/18 09:50:01;;;;;;;4.95;4.30;;;;;;;27.00;54.58;99936.67;1745310;82;21526;-69
2023/07/18 09:52:30;;;;;;;4.92;3.67;;;;;;;27.06;54.12;99935.40;1745172;82;21078;-68
2023/07/18 09:55:03;;;;;;;4.97;4.12;;;;;;;27.06;53.86;99939.62;1745085;82;21035;-70
2023/07/18 09:57:31;;;;;;;4.53;4.00;;;;;;;27.01;53.94;99939.74;1722877;82;21077;-69
2023/07/18 10:00:05;;;;;;;5.17;4.55;;;;;;;27.03;54.31;99934.05;1745284;82;21039;-66
2023/07/18 10:02:36;;;;;;;5.42;3.85;;;;;;;27.10;54.36;99926.58;1745318;82;21099;-66
2023/07/18 10:05:11;;;;;;;5.62;4.10;;;;;;;27.16;54.31;99924.73;1735963;82;21495;-67
2023/07/18 10:07:42;;;;;;;6.53;4.45;;;;;;;27.25;54.14;99927.60;1730075;83;21068;-65
2023/07/18 10:10:11;;;;;;;8.08;4.67;;;;;;;27.39;53.35;99926.98;1717195;83;21108;-70
2023/07/18 10:13:01;;;;;;;5.33;4.25;;;;;;;27.48;53.25;99925.63;1667384;83;21531;-65
2023/07/18 10:15:30;;;;;;;6.03;4.30;;;;;;;27.59;53.15;99930.41;1717333;83;21073;-65
2023/07/18 10:18:16;;;;;;;9.00;4.75;;;;;;;27.71;52.90;99925.87;1731196;81;21126;-67
2023/07/18 10:21:00;;;;;;;10.88;5.40;;;;;;;27.81;52.68;99920.54;1731516;83;21103;-67
2023/07/18 10:23:42;;;;;;;7.22;4.40;;;;;;;27.93;51.67;99926.39;1707249;83;21574;-65
2023/07/18 10:26:11;;;;;;;10.98;6.00;;;;;;;27.99;51.30;99920.06;1715804;83;21094;-67
2023/07/18 10:28:47;;;;;;;10.05;5.55;;;;;;;27.98;51.14;99923.46;1716283;83;21123;-66
2023/07/18 10:31:33;;;;;;;6.97;4.60;;;;;;;27.94;51.08;99917.36;1716233;83;21145;-65
2023/07/18 10:34:07;;;;;;;5.78;4.28;;;;;;;27.87;50.64;99923.47;1716258;83;21007;-64
2023/07/18 10:36:38;;;;;;;5.33;4.25;;;;;;;27.74;51.03;99932.84;1692066;83;21040;-67
2023/07/18 10:39:09;;;;;;;6.72;4.70;;;;;;;27.70;51.11;99928.44;1716248;83;21437;-66
2023/07/18 10:41:39;;;;;;;5.12;4.50;;;;;;;27.66;51.05;99933.63;1730124;81;21164;-64
2023/07/18 10:44:12;;;;;;;6.03;4.85;;;;;;;27.58;51.31;99923.95;1691554;83;21049;-64
2023/07/18 10:46:43;;;;;;;5.08;4.45;;;;;;;27.47;51.78;99929.02;1730319;83;21000;-66
2023/07/18 10:49:13;;;;;;;7.80;4.62;;;;;;;27.44;52.23;99927.42;1717273;82;21052;-65
2023/07/18 10:51:43;;;;;;;5.42;4.72;;;;;;;27.41;52.05;99918.22;1730074;81;21495;-65
2023/07/18 10:54:13;;;;;;;7.75;4.80;;;;;;;27.34;52.21;99924.30;1609377;88;21545;-66
2023/07/18 10:56:44;;;;;;;5.60;4.50;;;;;;;27.23;52.46;99913.59;1630628;88;21587;-65
2023/07/18 10:59:13;;;;;;;8.15;4.72;;;;;;;27.20;52.77;99910.86;1630694;88;21552;-66
2023/07/18 11:01:42;;;;;;;7.55;4.30;;;;;;;27.23;52.65;99919.23;1630622;88;21089;-64
2023/07/18 11:04:11;;;;;;;6.15;4.58;;;;;;;27.25;52.45;99912.13;1630497;88;21124;-66
2023/07/18 11:06:52;;;;;;;5.92;4.58;;;;;;;27.26;52.62;99906.76;1630782;88;21672;-65
2023/07/18 11:09:22;;;;;;;7.12;4.45;;;;;;;27.33;52.46;99904.35;1603148;88;21134;-66
2023/07/18 11:11:51;;;;;;;7.70;4.47;;;;;;;27.46;52.04;99909.06;1630414;88;21599;-72
2023/07/18 11:14:28;;;;;;;6.40;4.90;;;;;;;27.64;51.97;99904.39;1630529;86;21054;-66
2023/07/18 11:17:00;;;;;;;8.70;4.97;;;;;;;27.82;51.20;99903.06;1601036;88;21095;-68
2023/07/18 11:19:31;;;;;;;6.67;4.80;;;;;;;27.98;50.63;99895.88;1703298;83;21471;-67
2023/07/18 11:22:01;;;;;;;8.43;5.08;;;;;;;28.10;50.29;99903.13;1683497;84;21127;-67
2023/07/18 11:24:30;;;;;;;7.87;4.58;;;;;;;28.17;50.18;99891.38;1709032;84;21043;-67
2023/07/18 11:27:21;;;;;;;7.12;4.85;;;;;;;28.17;49.65;99897.01;1708834;83;21075;-68
2023/07/18 11:30:09;;;;;;;8.45;5.10;;;;;;;28.16;49.57;99906.04;1708908;84;21103;-70
2023/07/18 11:32:45;;;;;;;7.22;4.75;;;;;;;28.14;49.97;99905.53;1682911;84;21060;-67
2023/07/18 11:35:23;;;;;;;8.53;4.62;;;;;;;28.10;49.53;99908.17;1708981;84;20989;-67
2023/07/18 11:37:53;;;;;;;5.53;4.35;;;;;;;28.01;49.96;99892.41;1708693;83;21597;-69
2023/07/18 11:40:25;;;;;;;5.50;4.95;;;;;;;27.98;50.26;99891.07;1715737;82;21060;-66
2023/07/18 11:42:58;;;;;;;10.95;4.95;;;;;;;27.98;50.38;99882.62;1717333;83;21096;-68
2023/07/18 11:45:27;;;;;;;6.78;4.40;;;;;;;28.01;49.92;99881.97;1730090;83;21044;-67